Time;durP1;ratioP1;P1;durP2;ratioP2;P2;SDS_P1;SDS_P2;PMS_P1;PMS_P2;Temp;Humidity;BMP_temperature;BMP_pressure;BME280_temperature;BME280_humidity;BME280_pressure;Samples;Min_cycle;Max_cycle;Signal;HPM_P1;HPM_P2
2023/09/06 00:00:29;;;;;;;0.10;0.10;;;;;;;18.40;100.00;100297.34;5085584;28;20020;-61
2023/09/06 00:02:57;;;;;;;0.20;0.20;;;;;;;18.35;100.00;100294.91;5085854;28;20082;-61
2023/09/06 00:05:22;;;;;;;0.20;0.20;;;;;;;18.30;100.00;100297.00;5086473;28;20274;-65
2023/09/06 00:07:48;;;;;;;0.20;0.20;;;;;;;18.25;100.00;100293.72;5086656;28;20057;-63
2023/09/06 00:10:14;;;;;;;0.20;0.20;;;;;;;18.22;100.00;100292.06;5086281;28;20051;-64
2023/09/06 00:12:40;;;;;;;0.20;0.20;;;;;;;18.17;100.00;100290.63;5087422;28;20059;-64
2023/09/06 00:15:06;;;;;;;0.20;0.20;;;;;;;18.14;100.00;100294.34;5086513;28;20039;-63
2023/09/06 00:17:36;;;;;;;0.20;0.20;;;;;;;18.11;100.00;100285.56;5087050;28;20023;-64
2023/09/06 00:20:05;;;;;;;0.20;0.20;;;;;;;18.08;100.00;100291.16;5087424;28;20387;-64
2023/09/06 00:22:31;;;;;;;0.20;0.20;;;;;;;18.04;100.00;100292.28;5087327;28;20051;-63
2023/09/06 00:24:57;;;;;;;0.20;0.20;;;;;;;18.00;100.00;100288.91;5086115;28;20063;-63
2023/09/06 00:27:23;;;;;;;0.20;0.20;;;;;;;17.98;100.00;100287.25;5086172;28;20480;-64
2023/09/06 00:29:48;;;;;;;0.20;0.20;;;;;;;17.96;100.00;100292.72;5086619;28;20157;-64
2023/09/06 00:32:14;;;;;;;0.20;0.20;;;;;;;17.93;100.00;100292.91;5090713;28;20027;-63
2023/09/06 00:34:40;;;;;;;0.20;0.20;;;;;;;17.90;100.00;100282.34;5090359;28;20391;-64
2023/09/06 00:37:07;;;;;;;0.20;0.20;;;;;;;17.87;100.00;100293.28;5091065;28;20035;-64
2023/09/06 00:39:32;;;;;;;0.15;0.15;;;;;;;17.84;100.00;100293.44;5090673;28;20028;-64
2023/09/06 00:42:00;;;;;;;0.20;0.20;;;;;;;17.81;100.00;100288.22;5088568;28;20028;-63
2023/09/06 00:44:25;;;;;;;0.20;0.20;;;;;;;17.81;100.00;100290.94;5090887;28;20383;-63
2023/09/06 00:46:51;;;;;;;0.20;0.20;;;;;;;17.78;100.00;100299.19;5083960;28;20028;-63
2023/09/06 00:49:16;;;;;;;0.20;0.20;;;;;;;17.75;100.00;100293.97;5087429;28;20092;-63
2023/09/06 00:51:42;;;;;;;0.20;0.20;;;;;;;17.72;100.00;100298.66;5088952;28;20075;-63
2023/09/06 00:54:08;;;;;;;0.20;0.20;;;;;;;17.67;100.00;100290.88;5087997;28;20083;-63
2023/09/06 00:56:33;;;;;;;0.20;0.20;;;;;;;17.63;100.00;100288.41;5088773;28;20028;-64
2023/09/06 00:59:01;;;;;;;0.20;0.20;;;;;;;17.61;100.00;100282.28;5088405;28;20016;-63
2023/09/06 01:01:28;;;;;;;0.20;0.20;;;;;;;17.56;100.00;100292.44;5089505;28;20035;-64
2023/09/06 01:03:53;;;;;;;0.20;0.20;;;;;;;17.56;100.00;100287.91;5090256;28;20461;-64
2023/09/06 01:06:25;;;;;;;0.20;0.20;;;;;;;17.49;100.00;100283.84;5089900;28;20031;-64
2023/09/06 01:08:57;;;;;;;0.20;0.20;;;;;;;17.46;100.00;100291.22;5086425;28;20083;-64
2023/09/06 01:11:25;;;;;;;0.20;0.20;;;;;;;17.45;100.00;100295.72;5088883;28;20078;-64
2023/09/06 01:13:52;;;;;;;0.20;0.20;;;;;;;17.42;100.00;100285.09;5090960;28;20066;-64
2023/09/06 01:16:33;;;;;;;0.20;0.20;;;;;;;17.40;100.00;100283.44;5090418;28;20435;-64
2023/09/06 01:18:59;;;;;;;0.20;0.20;;;;;;;17.38;100.00;100298.81;5069779;28;20030;-64
2023/09/06 01:21:36;;;;;;;0.20;0.20;;;;;;;17.35;100.00;100294.44;5088238;28;20035;-64
2023/09/06 01:24:03;;;;;;;0.20;0.20;;;;;;;17.30;100.00;100291.16;5088332;28;20488;-64
2023/09/06 01:26:29;;;;;;;0.20;0.20;;;;;;;17.31;100.00;100300.09;5086802;28;20441;-64
2023/09/06 01:28:55;;;;;;;0.20;0.20;;;;;;;17.29;100.00;100302.88;5088343;28;20024;-63
2023/09/06 01:31:20;;;;;;;0.20;0.20;;;;;;;17.28;100.00;100298.44;5087618;28;20028;-64
2023/09/06 01:33:46;;;;;;;0.20;0.20;;;;;;;17.25;100.00;100298.59;5086846;28;20038;-64
2023/09/06 01:36:11;;;;;;;0.20;0.20;;;;;;;17.24;100.00;100296.88;5089728;28;20797;-63
2023/09/06 01:38:37;;;;;;;0.20;0.20;;;;;;;17.19;100.00;100304.31;5085579;28;20012;-63
2023/09/06 01:41:03;;;;;;;0.20;0.20;;;;;;;17.13;100.00;100288.53;5086551;28;20059;-64
2023/09/06 01:43:30;;;;;;;0.20;0.20;;;;;;;17.15;100.00;100299.22;5068268;28;20499;-65
2023/09/06 01:45:56;;;;;;;0.20;0.20;;;;;;;17.11;100.00;100301.19;5067750;28;20058;-64
2023/09/06 01:48:21;;;;;;;0.20;0.20;;;;;;;17.05;100.00;100294.31;5066407;28;20032;-63
2023/09/06 01:50:47;;;;;;;0.20;0.20;;;;;;;17.01;100.00;100297.28;5083291;28;20020;-63
2023/09/06 01:53:13;;;;;;;0.20;0.20;;;;;;;16.94;100.00;100287.78;5087937;28;20032;-64
2023/09/06 01:55:41;;;;;;;0.20;0.20;;;;;;;16.90;100.00;100292.47;5087104;28;20058;-64
2023/09/06 01:58:07;;;;;;;0.20;0.20;;;;;;;16.88;100.00;100293.50;5089894;28;20063;-64
2023/09/06 02:00:35;;;;;;;0.20;0.20;;;;;;;16.88;100.00;100285.44;5088283;28;20032;-64
2023/09/06 02:03:01;;;;;;;0.25;0.25;;;;;;;16.85;100.00;100293.69;5089296;28;20024;-64
2023/09/06 02:05:26;;;;;;;0.20;0.20;;;;;;;16.84;100.00;100298.19;5089629;28;20042;-64
2023/09/06 02:07:52;;;;;;;0.20;0.20;;;;;;;16.83;100.00;100296.44;5089205;28;20063;-64
2023/09/06 02:10:17;;;;;;;0.20;0.20;;;;;;;16.81;100.00;100303.72;5067963;28;20051;-64
2023/09/06 02:12:44;;;;;;;0.20;0.20;;;;;;;16.82;100.00;100300.06;5068922;28;20058;-64
2023/09/06 02:15:13;;;;;;;0.20;0.20;;;;;;;16.76;100.00;100294.16;5068888;28;20115;-63
2023/09/06 02:17:42;;;;;;;0.20;0.20;;;;;;;16.73;100.00;100295.22;5069152;28;20032;-64
2023/09/06 02:20:21;;;;;;;0.20;0.20;;;;;;;16.67;100.00;100294.66;5067581;28;20020;-64
2023/09/06 02:22:51;;;;;;;0.20;0.20;;;;;;;16.61;100.00;100300.34;5069013;28;20028;-64
2023/09/06 02:25:20;;;;;;;0.20;0.20;;;;;;;16.59;100.00;100302.25;5068088;28;20538;-63
2023/09/06 02:27:45;;;;;;;0.20;0.20;;;;;;;16.56;100.00;100305.06;5068358;28;20032;-64
2023/09/06 02:30:12;;;;;;;0.22;0.22;;;;;;;16.54;100.00;100307.00;5068293;28;20025;-63
2023/09/06 02:32:38;;;;;;;0.20;0.20;;;;;;;16.49;100.00;100301.00;5058712;28;20480;-63
2023/09/06 02:35:06;;;;;;;0.20;0.20;;;;;;;16.44;100.00;100298.50;5063054;28;20047;-64
2023/09/06 02:37:32;;;;;;;0.20;0.20;;;;;;;16.42;100.00;100304.91;5064069;28;20296;-64
2023/09/06 02:39:57;;;;;;;0.30;0.30;;;;;;;16.40;100.00;100296.94;5050828;28;20415;-63
2023/09/06 02:42:23;;;;;;;0.20;0.20;;;;;;;16.35;100.00;100301.66;5066555;28;20476;-64
2023/09/06 02:44:48;;;;;;;0.20;0.20;;;;;;;16.36;100.00;100294.50;5056551;28;20092;-63
2023/09/06 02:47:17;;;;;;;0.20;0.20;;;;;;;16.34;100.00;100302.59;5046077;28;20020;-63
2023/09/06 02:49:45;;;;;;;0.20;0.20;;;;;;;16.31;100.00;100307.28;5054237;28;20435;-64
2023/09/06 02:52:28;;;;;;;0.30;0.30;;;;;;;16.27;100.00;100306.56;5065797;28;20325;-64
2023/09/06 02:54:55;;;;;;;0.25;0.25;;;;;;;16.23;100.00;100299.59;5066144;28;20096;-64
2023/09/06 02:57:20;;;;;;;0.30;0.30;;;;;;;16.18;100.00;100296.28;5062919;28;20017;-64
2023/09/06 02:59:46;;;;;;;0.30;0.30;;;;;;;16.20;100.00;100298.88;5047133;28;20385;-63
2023/09/06 03:02:12;;;;;;;0.30;0.30;;;;;;;16.18;100.00;100308.81;5053883;28;20028;-64
2023/09/06 03:04:40;;;;;;;0.20;0.20;;;;;;;16.15;100.00;100306.31;5067032;28;20028;-64
2023/09/06 03:07:10;;;;;;;0.20;0.20;;;;;;;16.05;100.00;100299.66;5066125;28;20020;-63
2023/09/06 03:09:38;;;;;;;0.30;0.30;;;;;;;16.13;100.00;100310.91;5081009;28;20039;-64
2023/09/06 03:12:14;;;;;;;0.20;0.20;;;;;;;16.06;100.00;100306.78;5082508;28;20031;-64
2023/09/06 03:14:44;;;;;;;0.20;0.20;;;;;;;16.06;100.00;100309.47;5088074;28;20023;-64
2023/09/06 03:17:18;;;;;;;0.25;0.25;;;;;;;16.00;100.00;100299.91;5088161;28;20384;-64
2023/09/06 03:19:46;;;;;;;0.20;0.20;;;;;;;16.05;100.00;100300.53;5087440;28;20059;-64
2023/09/06 03:22:13;;;;;;;0.20;0.20;;;;;;;16.04;100.00;100304.19;5084405;28;20031;-64
2023/09/06 03:24:40;;;;;;;0.30;0.30;;;;;;;15.99;100.00;100302.66;5083712;28;20035;-63
2023/09/06 03:27:07;;;;;;;0.20;0.20;;;;;;;15.97;100.00;100307.22;5076557;28;20107;-64
2023/09/06 03:29:38;;;;;;;0.30;0.30;;;;;;;15.95;100.00;100310.00;5069040;28;20475;-65
2023/09/06 03:32:07;;;;;;;0.30;0.30;;;;;;;15.92;100.00;100307.47;5087533;28;20050;-64
2023/09/06 03:34:36;;;;;;;0.30;0.30;;;;;;;15.86;100.00;100301.53;5086005;28;20032;-63
2023/09/06 03:37:11;;;;;;;0.20;0.20;;;;;;;15.89;100.00;100306.75;5086372;28;20035;-64
2023/09/06 03:39:43;;;;;;;0.30;0.30;;;;;;;15.85;100.00;100313.22;5086014;28;20112;-62
2023/09/06 03:42:09;;;;;;;0.30;0.30;;;;;;;15.85;100.00;100311.38;5082291;28;20029;-61
2023/09/06 03:44:38;;;;;;;0.22;0.22;;;;;;;15.84;100.00;100317.72;5073227;28;20044;-61
2023/09/06 03:47:05;;;;;;;0.20;0.20;;;;;;;15.82;100.00;100315.09;5066508;28;20104;-62
2023/09/06 03:49:35;;;;;;;0.20;0.20;;;;;;;15.80;100.00;100311.63;5068298;28;20470;-61
2023/09/06 03:52:04;;;;;;;0.20;0.20;;;;;;;15.77;100.00;100306.41;5067832;28;20028;-61
2023/09/06 03:54:34;;;;;;;0.20;0.20;;;;;;;15.79;100.00;100317.94;5069313;28;20044;-62
2023/09/06 03:57:07;;;;;;;0.28;0.28;;;;;;;15.76;100.00;100320.75;5086568;28;20032;-61
2023/09/06 03:59:35;;;;;;;0.20;0.20;;;;;;;15.67;100.00;100310.50;5086643;28;20027;-61
2023/09/06 04:02:08;;;;;;;0.20;0.20;;;;;;;15.65;100.00;100308.81;5085569;28;20024;-61
2023/09/06 04:04:34;;;;;;;0.30;0.30;;;;;;;15.67;100.00;100321.22;5084750;28;20122;-61
2023/09/06 04:07:00;;;;;;;0.20;0.20;;;;;;;15.64;100.00;100323.16;5085436;28;20020;-62
2023/09/06 04:09:27;;;;;;;0.30;0.30;;;;;;;15.62;100.00;100327.72;5089769;28;20069;-62
2023/09/06 04:11:58;;;;;;;0.30;0.30;;;;;;;15.59;100.00;100325.19;5090668;28;20107;-62
2023/09/06 04:14:23;;;;;;;0.30;0.30;;;;;;;15.61;100.00;100326.00;5090952;28;20059;-62
2023/09/06 04:16:48;;;;;;;0.30;0.30;;;;;;;15.58;100.00;100329.69;5083423;28;20552;-62
2023/09/06 04:19:14;;;;;;;0.30;0.30;;;;;;;15.54;100.00;100333.47;5070961;28;20033;-62
2023/09/06 04:21:40;;;;;;;0.30;0.30;;;;;;;15.54;100.00;100337.97;5073640;28;20055;-62
2023/09/06 04:24:08;;;;;;;0.20;0.20;;;;;;;15.48;100.00;100336.47;5070816;28;20025;-62
2023/09/06 04:26:34;;;;;;;0.22;0.22;;;;;;;15.48;100.00;100351.66;5071020;28;20540;-62
2023/09/06 04:29:03;;;;;;;0.22;0.22;;;;;;;15.48;100.00;100346.31;5071903;28;20476;-62
2023/09/06 04:31:30;;;;;;;0.30;0.30;;;;;;;15.46;100.00;100354.41;5069900;28;20048;-62
2023/09/06 04:33:57;;;;;;;0.30;0.30;;;;;;;15.41;100.00;100351.09;5086402;28;20386;-63
2023/09/06 04:36:23;;;;;;;0.30;0.30;;;;;;;15.36;100.00;100353.06;5089452;28;20024;-62
2023/09/06 04:38:48;;;;;;;0.20;0.20;;;;;;;15.36;100.00;100357.56;5088956;28;20034;-62
2023/09/06 04:41:14;;;;;;;0.30;0.30;;;;;;;15.33;100.00;100358.59;5086204;28;20424;-63
2023/09/06 04:43:40;;;;;;;0.20;0.20;;;;;;;15.32;100.00;100361.34;5069578;28;20028;-62
2023/09/06 04:46:06;;;;;;;0.30;0.30;;;;;;;15.31;100.00;100367.63;5070681;28;20427;-62
2023/09/06 04:48:31;;;;;;;0.30;0.30;;;;;;;15.27;100.00;100364.22;5072576;28;20042;-62
2023/09/06 04:50:59;;;;;;;0.20;0.20;;;;;;;15.25;100.00;100363.44;5088391;28;20103;-62
2023/09/06 04:53:24;;;;;;;0.30;0.30;;;;;;;15.22;100.00;100366.22;5082304;28;20501;-63
2023/09/06 04:55:52;;;;;;;0.30;0.30;;;;;;;15.19;100.00;100371.72;5081052;28;20387;-62
2023/09/06 04:58:18;;;;;;;0.30;0.30;;;;;;;15.14;100.00;100365.72;5084343;28;20113;-62
2023/09/06 05:00:47;;;;;;;0.30;0.30;;;;;;;15.16;100.00;100371.88;5081447;28;20028;-62
2023/09/06 05:03:17;;;;;;;0.30;0.30;;;;;;;15.09;100.00;100359.69;5083670;28;20024;-63
2023/09/06 05:05:45;;;;;;;0.30;0.30;;;;;;;15.14;100.00;100373.75;5089005;28;20034;-63
2023/09/06 05:08:11;;;;;;;0.30;0.30;;;;;;;15.11;100.00;100364.97;5073620;28;20028;-63
2023/09/06 05:10:37;;;;;;;0.20;0.20;;;;;;;15.13;100.00;100382.75;5068348;28;20032;-63
2023/09/06 05:13:05;;;;;;;0.30;0.30;;;;;;;15.17;100.00;100389.69;5072492;28;20384;-63
2023/09/06 05:15:30;;;;;;;0.30;0.30;;;;;;;15.20;100.00;100394.06;5069639;28;20032;-63
2023/09/06 05:17:56;;;;;;;0.30;0.30;;;;;;;15.20;100.00;100394.06;5084657;28;20956;-63
2023/09/06 05:20:32;;;;;;;0.28;0.28;;;;;;;15.23;100.00;100393.91;5087460;28;20058;-64
2023/09/06 05:23:03;;;;;;;0.20;0.20;;;;;;;15.24;100.00;100390.28;5079626;28;20482;-63
2023/09/06 05:25:28;;;;;;;0.30;0.30;;;;;;;15.28;100.00;100398.13;5088020;28;20016;-63
2023/09/06 05:28:03;;;;;;;0.30;0.30;;;;;;;15.28;100.00;100394.56;5085357;28;20511;-63
2023/09/06 05:30:30;;;;;;;0.30;0.30;;;;;;;15.35;100.00;100399.56;5087662;28;20036;-63
2023/09/06 05:32:56;;;;;;;0.30;0.30;;;;;;;15.35;100.00;100393.34;5088124;28;20036;-64
2023/09/06 05:35:25;;;;;;;0.20;0.20;;;;;;;15.41;100.00;100402.03;5070280;28;20032;-63
2023/09/06 05:37:51;;;;;;;0.20;0.20;;;;;;;15.46;100.00;100408.03;5085929;28;20089;-63
2023/09/06 05:40:22;;;;;;;0.30;0.30;;;;;;;15.51;100.00;100414.06;5078715;28;20048;-62
2023/09/06 05:42:48;;;;;;;0.30;0.30;;;;;;;15.56;100.00;100409.34;5069347;28;20352;-63
2023/09/06 05:45:13;;;;;;;0.20;0.20;;;;;;;15.62;100.00;100411.75;5069502;28;20115;-63
2023/09/06 05:47:39;;;;;;;0.30;0.30;;;;;;;15.64;100.00;100407.19;5069735;28;20032;-63
2023/09/06 05:50:08;;;;;;;0.30;0.30;;;;;;;15.76;100.00;100406.59;5071746;28;20051;-63
2023/09/06 05:52:34;;;;;;;0.30;0.30;;;;;;;15.83;100.00;100412.56;5076224;28;20032;-63
2023/09/06 05:55:01;;;;;;;0.20;0.20;;;;;;;15.92;100.00;100405.84;5089153;28;20028;-63
2023/09/06 05:57:26;;;;;;;0.30;0.30;;;;;;;16.02;100.00;100409.84;5080952;28;20025;-63
2023/09/06 05:59:51;;;;;;;0.20;0.20;;;;;;;16.14;100.00;100403.88;5071960;28;20035;-63
2023/09/06 06:02:17;;;;;;;0.30;0.30;;;;;;;16.28;100.00;100396.00;5076797;28;20495;-63
2023/09/06 06:04:45;;;;;;;0.20;0.20;;;;;;;16.45;100.00;100401.41;5086164;28;20115;-63
2023/09/06 06:07:12;;;;;;;0.20;0.20;;;;;;;16.58;100.00;100403.44;5088285;28;20118;-63
2023/09/06 06:09:38;;;;;;;0.20;0.20;;;;;;;16.74;100.00;100406.19;5085717;28;20043;-63
2023/09/06 06:12:03;;;;;;;0.20;0.20;;;;;;;16.87;100.00;100407.28;5068136;28;20467;-63
2023/09/06 06:14:30;;;;;;;0.20;0.20;;;;;;;16.99;100.00;100412.03;5067982;28;20111;-63
2023/09/06 06:16:57;;;;;;;0.30;0.30;;;;;;;17.18;100.00;100417.31;5068819;28;20024;-63
2023/09/06 06:19:23;;;;;;;0.22;0.22;;;;;;;17.31;100.00;100411.22;5067141;28;20419;-63
2023/09/06 06:21:49;;;;;;;0.20;0.20;;;;;;;17.56;100.00;100419.69;5068271;28;20069;-63
2023/09/06 06:24:14;;;;;;;0.20;0.20;;;;;;;17.92;100.00;100423.03;5065939;28;20480;-63
2023/09/06 06:26:39;;;;;;;0.20;0.20;;;;;;;18.34;100.00;100423.31;5065957;28;20541;-63
2023/09/06 06:29:05;;;;;;;0.20;0.20;;;;;;;18.78;100.00;100412.63;5064231;28;20445;-63
2023/09/06 06:31:30;;;;;;;0.20;0.20;;;;;;;19.43;99.41;100416.75;5072740;28;20032;-63
2023/09/06 06:33:58;;;;;;;0.20;0.20;;;;;;;19.88;94.17;100419.25;5084742;28;20028;-63
2023/09/06 06:36:24;;;;;;;0.20;0.20;;;;;;;19.87;86.65;100422.88;5085720;28;20360;-63
2023/09/06 06:38:49;;;;;;;0.10;0.10;;;;;;;20.16;85.44;100419.22;5085243;28;20031;-62
2023/09/06 06:41:20;;;;;;;0.20;0.20;;;;;;;20.43;83.77;100428.19;5087137;28;20251;-63
2023/09/06 06:43:46;;;;;;;0.10;0.10;;;;;;;20.58;82.25;100427.19;5076920;28;20036;-63
2023/09/06 06:46:37;;;;;;;0.20;0.20;;;;;;;21.27;82.29;100431.50;5067882;28;20028;-62
2023/09/06 06:49:04;;;;;;;0.20;0.20;;;;;;;23.08;76.53;100430.56;5077868;28;20032;-63
2023/09/06 06:51:35;;;;;;;0.20;0.20;;;;;;;23.69;68.26;100431.22;5068041;28;20021;-62
2023/09/06 06:54:03;;;;;;;0.10;0.10;;;;;;;23.25;68.23;100438.28;5070910;28;20039;-62
2023/09/06 06:56:29;;;;;;;0.10;0.10;;;;;;;23.01;69.28;100429.34;5074288;28;20392;-62
2023/09/06 06:58:54;;;;;;;0.10;0.10;;;;;;;23.03;70.10;100431.94;5074280;28;20028;-62
2023/09/06 07:01:24;;;;;;;0.20;0.20;;;;;;;23.05;69.82;100429.94;5088057;28;20027;-62
2023/09/06 07:03:49;;;;;;;0.20;0.20;;;;;;;22.79;72.15;100439.22;5068142;28;20024;-62
2023/09/06 07:06:15;;;;;;;0.10;0.10;;;;;;;22.77;71.79;100428.47;5085248;28;20024;-62
2023/09/06 07:08:40;;;;;;;0.10;0.10;;;;;;;22.87;70.47;100425.94;5087766;28;20423;-63
2023/09/06 07:11:07;;;;;;;0.20;0.20;;;;;;;22.85;70.10;100423.34;5078463;28;20032;-62
2023/09/06 07:13:33;;;;;;;0.10;0.10;;;;;;;22.94;70.40;100424.47;5072482;28;20035;-62
2023/09/06 07:15:58;;;;;;;0.10;0.10;;;;;;;23.00;70.62;100430.31;5066973;28;20527;-62
2023/09/06 07:18:24;;;;;;;0.10;0.10;;;;;;;23.60;70.36;100418.38;5066785;28;20027;-63
2023/09/06 07:20:50;;;;;;;0.10;0.10;;;;;;;24.23;66.41;100424.91;5071288;28;20031;-62
2023/09/06 07:23:15;;;;;;;0.10;0.10;;;;;;;24.71;64.31;100428.19;5078552;28;20681;-62
2023/09/06 07:25:47;;;;;;;0.10;0.10;;;;;;;25.45;60.42;100428.03;5076305;28;20187;-63
2023/09/06 07:28:13;;;;;;;0.10;0.10;;;;;;;25.18;61.01;100427.69;5070323;28;20028;-62
2023/09/06 07:30:39;;;;;;;0.10;0.10;;;;;;;25.64;59.48;100430.03;5068911;28;20479;-62
2023/09/06 07:33:05;;;;;;;0.10;0.10;;;;;;;25.21;60.27;100426.56;5068388;28;20025;-63
2023/09/06 07:35:30;;;;;;;0.10;0.10;;;;;;;25.36;59.44;100428.88;5076659;28;20032;-62
2023/09/06 07:37:56;;;;;;;0.10;0.10;;;;;;;25.69;60.59;100428.63;5078216;28;20548;-62
2023/09/06 07:40:21;;;;;;;0.10;0.10;;;;;;;26.08;58.06;100437.03;5075617;28;20032;-62
2023/09/06 07:42:46;;;;;;;0.10;0.10;;;;;;;26.16;57.52;100437.19;5070800;28;20562;-62
2023/09/06 07:45:12;;;;;;;0.10;0.10;;;;;;;26.59;57.74;100424.94;5067674;28;20024;-62
2023/09/06 07:47:37;;;;;;;0.10;0.10;;;;;;;26.88;55.28;100436.78;5067954;28;20488;-63
2023/09/06 07:50:06;;;;;;;0.10;0.10;;;;;;;26.86;55.82;100440.66;5077700;28;20759;-62
2023/09/06 07:52:32;;;;;;;0.10;0.10;;;;;;;26.50;55.95;100436.72;5078231;28;20040;-62
2023/09/06 07:54:58;;;;;;;0.10;0.10;;;;;;;26.94;56.02;100440.81;5086007;28;20055;-62
2023/09/06 07:57:24;;;;;;;0.00;0.00;;;;;;;27.34;54.19;100438.81;5081553;28;20056;-62
2023/09/06 07:59:49;;;;;;;0.10;0.10;;;;;;;27.43;51.57;100443.38;5071329;28;20077;-62
2023/09/06 08:02:14;;;;;;;0.10;0.10;;;;;;;27.44;53.98;100412.31;5075593;28;20031;-62
2023/09/06 08:04:40;;;;;;;0.00;0.00;;;;;;;27.95;52.55;100434.66;5068051;28;20621;-63
2023/09/06 08:07:05;;;;;;;0.00;0.00;;;;;;;27.68;50.83;100441.88;5073261;28;20024;-62
2023/09/06 08:09:31;;;;;;;0.10;0.10;;;;;;;27.68;53.08;100448.22;5066427;28;20055;-62
2023/09/06 08:11:56;;;;;;;0.05;0.05;;;;;;;28.07;52.24;100444.38;5064613;28;20024;-62
2023/09/06 08:14:22;;;;;;;0.03;0.03;;;;;;;28.38;50.59;100442.22;5065068;28;20029;-62
2023/09/06 08:16:47;;;;;;;0.00;0.00;;;;;;;28.55;50.54;100448.78;5070059;28;20107;-62
2023/09/06 08:19:12;;;;;;;0.10;0.10;;;;;;;28.73;50.29;100452.41;5064409;28;20077;-62
2023/09/06 08:21:42;;;;;;;0.00;0.00;;;;;;;29.05;48.83;100458.19;5064497;28;20027;-62
2023/09/06 08:24:07;;;;;;;0.00;0.00;;;;;;;28.71;48.01;100459.91;5079366;28;20119;-62
2023/09/06 08:26:33;;;;;;;0.00;0.00;;;;;;;28.91;48.96;100456.88;5074849;28;20033;-62
2023/09/06 08:28:58;;;;;;;0.00;0.00;;;;;;;29.15;47.44;100459.00;5069894;28;20380;-62
2023/09/06 08:31:23;;;;;;;0.00;0.00;;;;;;;29.32;48.17;100455.41;5067295;28;20074;-62
2023/09/06 08:33:49;;;;;;;0.00;0.00;;;;;;;29.56;46.66;100452.84;5087734;28;20027;-62
2023/09/06 08:36:15;;;;;;;0.00;0.00;;;;;;;29.76;46.87;100453.53;5087827;28;20020;-62
2023/09/06 08:38:41;;;;;;;0.00;0.00;;;;;;;30.13;46.81;100456.84;5070576;28;20173;-62
2023/09/06 08:41:09;;;;;;;0.00;0.00;;;;;;;30.20;45.17;100455.16;5084756;28;20502;-62
2023/09/06 08:43:37;;;;;;;0.00;0.00;;;;;;;30.26;45.07;100455.41;5085132;28;20361;-62
2023/09/06 08:46:18;;;;;;;0.00;0.00;;;;;;;30.49;44.86;100452.91;5083195;28;20030;-62
2023/09/06 08:48:47;;;;;;;0.00;0.00;;;;;;;30.85;44.64;100449.78;5065180;28;20114;-62
2023/09/06 08:51:15;;;;;;;0.00;0.00;;;;;;;31.03;42.46;100451.53;5081685;28;20454;-62
2023/09/06 08:53:42;;;;;;;0.00;0.00;;;;;;;31.25;44.14;100453.63;5089840;28;20024;-62
2023/09/06 08:56:08;;;;;;;0.00;0.00;;;;;;;31.36;43.62;100453.28;5085120;28;20122;-62
2023/09/06 08:58:34;;;;;;;0.00;0.00;;;;;;;31.11;41.69;100440.53;5089076;28;20124;-62
2023/09/06 09:01:00;;;;;;;0.00;0.00;;;;;;;30.33;44.06;100459.19;5077818;28;20024;-62
2023/09/06 09:03:25;;;;;;;0.00;0.00;;;;;;;30.68;45.31;100453.50;5085707;28;20872;-62
2023/09/06 09:05:51;;;;;;;0.00;0.00;;;;;;;30.98;43.40;100453.91;5076829;28;20035;-63
2023/09/06 09:08:16;;;;;;;0.00;0.00;;;;;;;31.07;42.79;100447.41;5067338;28;20122;-63
2023/09/06 09:10:42;;;;;;;0.00;0.00;;;;;;;31.19;43.26;100451.53;5076748;28;20687;-62
2023/09/06 09:13:12;;;;;;;0.00;0.00;;;;;;;31.43;41.57;100448.84;5088569;28;20035;-63
2023/09/06 09:15:37;;;;;;;0.00;0.00;;;;;;;31.48;42.29;100450.03;5082463;28;20025;-63
2023/09/06 09:18:10;;;;;;;0.00;0.00;;;;;;;31.57;42.35;100451.75;5065237;28;20021;-63
2023/09/06 09:20:37;;;;;;;;;;;;;;;31.22;41.22;100451.22;5069019;28;20051;-62
2023/09/06 09:23:02;;;;;;;0.00;0.00;;;;;;;31.11;43.47;100449.66;5070205;28;20372;-63
2023/09/06 09:25:28;;;;;;;0.00;0.00;;;;;;;31.37;42.12;100449.53;5078390;28;20034;-63
2023/09/06 09:27:57;;;;;;;0.00;0.00;;;;;;;31.60;42.06;100451.38;5070831;28;20017;-63
2023/09/06 09:30:23;;;;;;;0.00;0.00;;;;;;;31.91;41.20;100455.16;5074693;28;20032;-62
2023/09/06 09:32:56;;;;;;;0.00;0.00;;;;;;;32.27;40.34;100454.69;5082874;28;20377;-63
2023/09/06 09:35:22;;;;;;;0.00;0.00;;;;;;;32.16;39.74;100458.69;5085498;28;20120;-62
2023/09/06 09:37:51;;;;;;;0.00;0.00;;;;;;;32.43;38.53;100447.25;5086285;28;20107;-63
2023/09/06 09:40:43;;;;;;;0.00;0.00;;;;;;;32.48;40.34;100447.59;5088152;28;20108;-62
2023/09/06 09:43:09;;;;;;;0.00;0.00;;;;;;;32.76;39.85;100439.69;5088232;28;20429;-62
2023/09/06 09:45:45;;;;;;;0.00;0.00;;;;;;;32.97;39.09;100438.03;5088241;28;20266;-63
2023/09/06 09:48:11;;;;;;;0.00;0.00;;;;;;;32.90;38.81;100436.19;5087932;28;20032;-63
2023/09/06 09:50:41;;;;;;;0.00;0.00;;;;;;;32.99;39.55;100440.59;5085927;28;20028;-63
2023/09/06 09:53:09;;;;;;;0.00;0.00;;;;;;;32.70;38.78;100437.66;5068974;28;20028;-63
2023/09/06 09:55:45;;;;;;;0.00;0.00;;;;;;;32.74;37.78;100433.47;5071042;28;20097;-63
2023/09/06 09:58:12;;;;;;;0.00;0.00;;;;;;;33.04;37.94;100436.25;5069857;28;20035;-63
2023/09/06 10:00:41;;;;;;;0.00;0.00;;;;;;;33.24;38.53;100433.84;5084844;28;20062;-63
2023/09/06 10:03:08;;;;;;;0.00;0.00;;;;;;;32.94;38.75;100427.38;5077503;28;20378;-63
2023/09/06 10:05:35;;;;;;;0.00;0.00;;;;;;;33.39;39.42;100427.31;5083099;28;20031;-64
2023/09/06 10:08:03;;;;;;;0.00;0.00;;;;;;;33.77;37.78;100421.84;5085783;28;20106;-64
2023/09/06 10:10:29;;;;;;;0.00;0.00;;;;;;;33.62;37.38;100432.84;5067296;28;20051;-63
2023/09/06 10:12:56;;;;;;;0.00;0.00;;;;;;;33.88;37.21;100426.88;5084788;28;20056;-64
2023/09/06 10:15:24;;;;;;;0.00;0.00;;;;;;;33.84;38.06;100420.03;5086391;28;20529;-64
2023/09/06 10:17:52;;;;;;;0.00;0.00;;;;;;;33.94;36.92;100429.78;5074795;28;20035;-63
2023/09/06 10:20:23;;;;;;;0.00;0.00;;;;;;;34.04;37.18;100433.09;5067320;28;20052;-63
2023/09/06 10:22:52;;;;;;;0.00;0.00;;;;;;;33.82;37.34;100433.16;5070000;28;20024;-63
2023/09/06 10:25:18;;;;;;;0.00;0.00;;;;;;;33.81;38.53;100429.53;5067246;28;20086;-63
2023/09/06 10:27:48;;;;;;;0.00;0.00;;;;;;;34.27;37.12;100417.28;5067526;28;20028;-63
2023/09/06 10:30:17;;;;;;;0.00;0.00;;;;;;;33.97;37.27;100412.81;5082814;28;20085;-63
2023/09/06 10:32:47;;;;;;;0.00;0.00;;;;;;;34.19;38.96;100431.22;5084415;28;20120;-63
2023/09/06 10:35:29;;;;;;;0.00;0.00;;;;;;;34.50;37.69;100412.53;5072279;28;20032;-63
2023/09/06 10:38:06;;;;;;;0.00;0.00;;;;;;;34.35;36.20;100413.56;5079413;28;20388;-63
2023/09/06 10:40:53;;;;;;;0.00;0.00;;;;;;;34.39;37.82;100403.84;5087045;28;20028;-63
2023/09/06 10:43:22;;;;;;;0.00;0.00;;;;;;;34.11;38.33;100411.09;5062596;28;20055;-63
2023/09/06 10:45:58;;;;;;;0.00;0.00;;;;;;;34.12;38.00;100410.09;5086935;28;20024;-64
2023/09/06 10:48:24;;;;;;;0.00;0.00;;;;;;;34.19;37.83;100398.06;5082629;28;20021;-64
2023/09/06 10:51:12;;;;;;;0.00;0.00;;;;;;;34.29;37.61;100393.09;5084323;28;20020;-64
2023/09/06 10:53:40;;;;;;;0.00;0.00;;;;;;;34.80;37.19;100393.94;5085563;28;20020;-64
2023/09/06 10:56:06;;;;;;;0.00;0.00;;;;;;;34.79;36.87;100389.47;5086115;28;20024;-64
2023/09/06 10:58:37;;;;;;;0.00;0.00;;;;;;;34.95;37.16;100391.16;5083546;28;20035;-63
2023/09/06 11:01:12;;;;;;;0.00;0.00;;;;;;;35.03;36.41;100382.72;5085580;28;20123;-64
2023/09/06 11:03:37;;;;;;;0.00;0.00;;;;;;;34.81;36.19;100384.59;5074427;28;20024;-64
2023/09/06 11:06:04;;;;;;;0.00;0.00;;;;;;;34.85;37.01;100385.91;5072278;28;20063;-63
2023/09/06 11:08:31;;;;;;;0.00;0.00;;;;;;;34.99;37.24;100382.28;5080434;28;20126;-63
2023/09/06 11:11:05;;;;;;;0.00;0.00;;;;;;;35.10;37.62;100383.63;5065997;28;20035;-64
2023/09/06 11:13:32;;;;;;;0.00;0.00;;;;;;;35.45;37.82;100379.94;5065654;28;20446;-64
2023/09/06 11:16:03;;;;;;;0.00;0.00;;;;;;;35.35;37.41;100379.41;5066322;28;20050;-63
2023/09/06 11:18:30;;;;;;;0.00;0.00;;;;;;;35.32;38.14;100365.97;5068877;28;20499;-63
2023/09/06 11:20:56;;;;;;;0.00;0.00;;;;;;;35.34;36.66;100366.63;5072858;28;20027;-63
2023/09/06 11:23:22;;;;;;;0.00;0.00;;;;;;;35.37;37.62;100364.28;5067011;28;20081;-63